createdAt,value
2022-11-09T00:01:31.599Z,7.08
2022-11-09T00:04:00.844Z,7.07
2022-11-09T00:06:29.638Z,7.08
2022-11-09T00:08:59.418Z,7.13
2022-11-09T00:11:31.750Z,7.17
2022-11-09T00:13:59.468Z,7.15
2022-11-09T00:16:27.379Z,6.92
2022-11-09T00:18:56.017Z,7.01
2022-11-09T00:21:26.315Z,7.01
2022-11-09T00:23:54.612Z,7.00
2022-11-09T00:26:23.390Z,6.89
2022-11-09T00:28:52.882Z,6.73
2022-11-09T00:31:22.875Z,6.80
2022-11-09T00:33:52.236Z,6.65
2022-11-09T00:36:21.697Z,6.75
2022-11-09T00:38:51.065Z,6.79
2022-11-09T00:41:19.585Z,6.73
2022-11-09T00:43:48.187Z,6.73
2022-11-09T00:46:18.769Z,6.73
2022-11-09T00:48:47.488Z,6.70
2022-11-09T00:51:15.876Z,6.63
2022-11-09T00:53:43.747Z,6.57
2022-11-09T00:56:13.837Z,6.65
2022-11-09T00:58:42.489Z,6.38
2022-11-09T01:01:13.759Z,6.57
2022-11-09T01:03:45.256Z,6.66
2022-11-09T01:06:16.978Z,6.57
2022-11-09T01:08:45.376Z,6.62
2022-11-09T01:11:16.271Z,6.62
2022-11-09T01:13:44.849Z,6.68
2022-11-09T01:16:15.037Z,6.73
2022-11-09T01:18:44.551Z,6.71
2022-11-09T01:21:15.371Z,6.72
2022-11-09T01:23:43.866Z,6.75
2022-11-09T01:26:13.723Z,6.85
2022-11-09T01:28:42.191Z,6.85
2022-11-09T01:31:14.304Z,6.91
2022-11-09T01:33:44.353Z,6.96
2022-11-09T01:36:15.193Z,6.99
2022-11-09T01:38:44.275Z,7.04
2022-11-09T01:41:15.631Z,7.07
2022-11-09T01:43:43.959Z,7.16
2022-11-09T01:46:18.242Z,7.19
2022-11-09T01:48:53.599Z,7.25
2022-11-09T01:51:27.435Z,7.21
2022-11-09T01:54:00.724Z,7.20
2022-11-09T01:56:30.276Z,7.21
2022-11-09T01:59:02.546Z,7.19
2022-11-09T02:01:32.887Z,7.21
2022-11-09T02:04:08.203Z,7.09
2022-11-09T02:06:37.535Z,7.29
2022-11-09T02:09:12.750Z,7.35
2022-11-09T02:11:41.793Z,7.48
2022-11-09T02:14:09.881Z,7.28
2022-11-09T02:16:39.264Z,7.24
2022-11-09T02:19:08.584Z,7.43
2022-11-09T02:21:38.106Z,7.61
2022-11-09T02:24:07.031Z,7.51
2022-11-09T02:26:40.181Z,7.66
2022-11-09T02:29:11.337Z,7.60
2022-11-09T02:31:43.266Z,7.55
2022-11-09T02:34:15.049Z,7.45
2022-11-09T02:36:44.726Z,6.88
2022-11-09T02:39:20.085Z,7.05
2022-11-09T02:41:51.570Z,6.85
2022-11-09T02:44:20.184Z,6.72
2022-11-09T02:46:48.412Z,6.64
2022-11-09T02:49:16.285Z,6.50
2022-11-09T02:51:45.730Z,6.59
2022-11-09T02:54:14.501Z,6.63
2022-11-09T02:56:42.657Z,6.72
2022-11-09T02:59:10.550Z,6.89
2022-11-09T03:01:40.316Z,6.90
2022-11-09T03:04:08.137Z,7.00
2022-11-09T03:06:37.600Z,6.90
2022-11-09T03:09:13.841Z,6.93
2022-11-09T03:11:43.635Z,6.86
2022-11-09T03:14:14.675Z,6.97
2022-11-09T03:16:50.756Z,6.95
2022-11-09T03:19:19.273Z,6.92
2022-11-09T03:21:51.319Z,6.92
2022-11-09T03:24:24.582Z,6.86
2022-11-09T03:26:56.357Z,6.84
2022-11-09T03:29:24.616Z,6.67
2022-11-09T03:31:52.485Z,6.75
2022-11-09T03:34:20.186Z,6.69
2022-11-09T03:36:48.332Z,6.51
2022-11-09T03:39:16.047Z,6.59
2022-11-09T03:41:45.219Z,6.60
2022-11-09T03:44:12.958Z,6.59
2022-11-09T03:46:40.726Z,6.49
2022-11-09T03:49:08.480Z,6.42
2022-11-09T03:51:36.191Z,6.39
2022-11-09T03:54:04.265Z,6.43
2022-11-09T03:56:32.417Z,6.37
2022-11-09T03:59:01.539Z,6.30
2022-11-09T04:01:29.759Z,6.24
2022-11-09T04:03:57.523Z,6.29
2022-11-09T04:06:25.731Z,6.47
2022-11-09T04:08:53.492Z,6.55
2022-11-09T04:11:21.529Z,6.65
2022-11-09T04:13:49.314Z,6.74
2022-11-09T04:16:19.049Z,6.80
2022-11-09T04:18:46.770Z,6.77
2022-11-09T04:21:14.907Z,6.76
2022-11-09T04:23:42.718Z,6.76
2022-11-09T04:26:11.025Z,6.69
2022-11-09T04:28:39.079Z,6.63
2022-11-09T04:31:07.267Z,6.71
2022-11-09T04:33:36.451Z,6.87
2022-11-09T04:36:05.017Z,7.04
2022-11-09T04:38:33.212Z,6.99
2022-11-09T04:41:02.287Z,6.95
2022-11-09T04:43:30.350Z,6.90
2022-11-09T04:46:01.121Z,6.80
2022-11-09T04:48:29.259Z,6.68
2022-11-09T04:51:02.275Z,6.89
2022-11-09T04:53:31.548Z,7.02
2022-11-09T04:55:59.708Z,7.10
2022-11-09T04:58:28.193Z,7.31
2022-11-09T05:00:56.085Z,7.35
2022-11-09T05:03:24.400Z,7.49
2022-11-09T05:05:52.185Z,7.54
2022-11-09T05:08:21.638Z,7.67
2022-11-09T05:10:49.463Z,7.61
2022-11-09T05:13:17.445Z,7.45
2022-11-09T05:15:45.538Z,7.33
2022-11-09T05:18:13.809Z,7.21
2022-11-09T05:20:41.551Z,7.17
2022-11-09T05:23:50.505Z,7.11
2022-11-09T05:26:18.278Z,7.05
2022-11-09T05:28:46.593Z,7.01
2022-11-09T05:31:14.682Z,6.97
2022-11-09T05:33:42.508Z,6.89
2022-11-09T05:36:10.545Z,6.83
2022-11-09T05:38:39.680Z,6.79
2022-11-09T05:41:07.523Z,6.72
2022-11-09T05:43:35.580Z,6.75
2022-11-09T05:46:06.574Z,6.75
2022-11-09T05:48:35.026Z,6.82
2022-11-09T05:51:04.163Z,7.01
2022-11-09T05:53:33.131Z,7.23
2022-11-09T05:56:07.499Z,7.47
2022-11-09T05:58:39.033Z,7.78
2022-11-09T06:01:07.727Z,8.05
2022-11-09T06:03:36.539Z,8.23
2022-11-09T06:06:08.706Z,8.26
2022-11-09T06:08:37.509Z,8.09
2022-11-09T06:11:09.796Z,7.98
2022-11-09T06:13:38.199Z,7.89
2022-11-09T06:16:07.208Z,7.61
2022-11-09T06:18:37.228Z,7.49
2022-11-09T06:21:06.397Z,7.30
2022-11-09T06:23:35.070Z,7.26
2022-11-09T06:26:06.373Z,7.27
2022-11-09T06:28:36.053Z,7.53
2022-11-09T06:31:05.445Z,7.90
2022-11-09T06:33:35.353Z,8.25
2022-11-09T06:36:03.859Z,8.58
2022-11-09T06:38:32.107Z,8.84
2022-11-09T06:41:00.775Z,9.21
2022-11-09T06:43:29.420Z,9.53
2022-11-09T06:45:58.838Z,9.73
2022-11-09T06:48:26.982Z,9.88
2022-11-09T06:50:54.791Z,10.06
2022-11-09T06:53:23.817Z,10.21
2022-11-09T06:55:52.414Z,10.42
2022-11-09T06:58:20.787Z,10.51
2022-11-09T07:00:48.944Z,10.57
2022-11-09T07:03:20.557Z,10.73
2022-11-09T07:05:50.235Z,10.80
2022-11-09T07:08:19.154Z,11.05
2022-11-09T07:10:47.818Z,11.21
2022-11-09T07:13:15.651Z,11.21
2022-11-09T07:15:43.673Z,11.32
2022-11-09T07:18:13.188Z,11.41
2022-11-09T07:20:42.906Z,11.42
2022-11-09T07:23:10.629Z,11.51
2022-11-09T07:25:38.673Z,11.53
2022-11-09T07:28:07.608Z,11.55
2022-11-09T07:30:36.562Z,11.46
2022-11-09T07:33:09.573Z,11.39
2022-11-09T07:35:38.828Z,11.34
2022-11-09T07:38:08.395Z,11.31
2022-11-09T07:40:36.812Z,11.30
2022-11-09T07:43:06.434Z,11.29
2022-11-09T07:45:36.891Z,11.30
2022-11-09T07:48:08.088Z,11.35
2022-11-09T07:50:38.753Z,11.38
2022-11-09T07:53:08.768Z,11.41
2022-11-09T07:55:37.550Z,11.47
2022-11-09T07:58:06.977Z,11.58
2022-11-09T08:00:37.523Z,11.66
2022-11-09T08:03:06.096Z,11.80
2022-11-09T08:05:34.760Z,11.87
2022-11-09T08:08:04.770Z,11.91
2022-11-09T08:10:36.309Z,11.94
2022-11-09T08:13:06.722Z,11.98
2022-11-09T08:15:36.804Z,12.02
2022-11-09T08:18:07.886Z,12.15
2022-11-09T08:20:36.506Z,12.36
2022-11-09T08:23:05.301Z,12.72
2022-11-09T08:25:36.438Z,13.29
2022-11-09T08:28:04.577Z,13.64
2022-11-09T08:30:32.964Z,13.87
2022-11-09T08:33:01.566Z,14.02
2022-11-09T08:35:31.463Z,14.19
2022-11-09T08:38:02.750Z,14.42
2022-11-09T08:40:32.689Z,14.72
2022-11-09T08:43:04.801Z,15.02
2022-11-09T08:45:34.446Z,14.82
2022-11-09T08:48:02.997Z,14.90
2022-11-09T08:50:31.975Z,14.80
2022-11-09T08:52:59.885Z,15.16
2022-11-09T08:55:28.300Z,15.87
2022-11-09T08:57:57.110Z,16.23
2022-11-09T09:00:27.357Z,16.47
2022-11-09T09:02:55.308Z,16.40
2022-11-09T09:05:23.295Z,16.27
2022-11-09T09:07:51.053Z,15.97
2022-11-09T09:10:19.410Z,15.83
2022-11-09T09:12:47.511Z,15.63
2022-11-09T09:15:15.228Z,15.92
2022-11-09T09:17:44.296Z,16.54
2022-11-09T09:20:12.549Z,17.61
2022-11-09T09:22:40.914Z,18.53
2022-11-09T09:25:10.304Z,19.45
2022-11-09T09:27:38.133Z,19.99
2022-11-09T09:30:07.290Z,20.70
2022-11-09T09:32:35.015Z,20.47
2022-11-09T09:35:04.713Z,19.06
2022-11-09T09:37:32.399Z,18.09
2022-11-09T09:40:00.570Z,17.86
2022-11-09T09:42:32.739Z,17.91
2022-11-09T09:45:05.871Z,17.79
2022-11-09T09:47:46.063Z,16.75
2022-11-09T09:50:20.003Z,16.56
2022-11-09T09:53:22.021Z,16.42
2022-11-09T09:55:44.935Z,15.94
2022-11-09T09:58:14.873Z,15.92
2022-11-09T10:00:44.518Z,15.77
2022-11-09T10:03:18.443Z,15.51
2022-11-09T10:05:56.454Z,15.70
2022-11-09T10:08:34.606Z,15.85
2022-11-09T10:11:13.862Z,16.10
2022-11-09T10:14:05.411Z,16.08
2022-11-09T10:16:42.099Z,15.87
2022-11-09T10:19:27.389Z,15.61
2022-11-09T10:22:03.987Z,16.04
2022-11-09T10:24:58.773Z,16.27
2022-11-09T10:27:35.205Z,16.33
2022-11-09T10:30:08.804Z,16.51
2022-11-09T10:32:37.268Z,16.43
2022-11-09T10:35:16.541Z,16.82
2022-11-09T10:37:49.030Z,17.47
2022-11-09T10:40:20.930Z,17.98
2022-11-09T10:43:11.494Z,17.85
2022-11-09T10:46:05.275Z,17.55
2022-11-09T10:48:53.333Z,16.91
2022-11-09T10:51:42.297Z,16.98
2022-11-09T10:54:32.527Z,16.94
2022-11-09T10:57:21.163Z,16.86
2022-11-09T11:00:16.115Z,16.64
2022-11-09T11:03:12.552Z,16.63
2022-11-09T11:06:01.022Z,16.70
2022-11-09T11:08:49.491Z,16.59
2022-11-09T11:11:39.526Z,16.69
2022-11-09T11:14:33.036Z,16.69
2022-11-09T11:17:24.495Z,16.70
2022-11-09T11:20:31.628Z,16.42
2022-11-09T11:23:21.411Z,16.46
2022-11-09T11:26:24.972Z,15.90
2022-11-09T11:29:32.503Z,15.90
2022-11-09T11:32:21.261Z,15.84
2022-11-09T11:35:15.363Z,15.99
2022-11-09T11:38:16.250Z,16.15
2022-11-09T11:41:16.418Z,16.12
2022-11-09T11:44:09.566Z,16.21
2022-11-09T11:47:03.897Z,16.44
2022-11-09T11:50:01.225Z,16.40
2022-11-09T11:53:00.856Z,16.69
2022-11-09T11:56:09.098Z,17.00
2022-11-09T11:59:09.987Z,17.20
2022-11-09T12:02:36.013Z,17.21
2022-11-09T12:05:38.563Z,17.22
2022-11-09T12:08:32.640Z,17.10
2022-11-09T12:11:35.609Z,17.04
2022-11-09T12:14:33.265Z,16.47
2022-11-09T12:17:29.744Z,16.57
2022-11-09T12:20:27.146Z,16.67
2022-11-09T12:23:30.561Z,16.59
2022-11-09T12:26:24.413Z,16.67
2022-11-09T12:29:20.440Z,16.64
2022-11-09T12:32:18.506Z,17.08
2022-11-09T12:35:21.496Z,17.29
2022-11-09T12:38:15.428Z,17.45
2022-11-09T12:41:06.436Z,17.50
2022-11-09T12:43:56.300Z,17.54
2022-11-09T12:46:50.362Z,17.50
2022-11-09T12:49:40.062Z,17.48
2022-11-09T12:52:31.120Z,17.51
2022-11-09T12:55:22.152Z,17.62
2022-11-09T12:58:08.995Z,17.67
2022-11-09T13:00:57.446Z,17.72
2022-11-09T13:03:55.107Z,17.71
2022-11-09T13:06:42.549Z,17.79
2022-11-09T13:09:44.072Z,17.76
2022-11-09T13:12:37.553Z,17.69
2022-11-09T13:15:26.723Z,17.74
2022-11-09T13:18:25.826Z,17.78
2022-11-09T13:21:39.969Z,17.66
2022-11-09T13:24:56.227Z,17.68
2022-11-09T13:27:45.722Z,17.65
2022-11-09T13:30:41.699Z,17.68
2022-11-09T13:33:28.705Z,17.66
2022-11-09T13:36:18.277Z,17.65
2022-11-09T13:39:29.054Z,17.61
2022-11-09T13:42:31.937Z,17.58
2022-11-09T13:45:29.897Z,17.50
2022-11-09T13:48:34.935Z,17.42
2022-11-09T13:51:24.147Z,17.36
2022-11-09T13:54:29.873Z,17.29
2022-11-09T13:57:17.548Z,17.28
2022-11-09T14:00:09.272Z,17.27
2022-11-09T14:02:58.246Z,17.21
2022-11-09T14:05:45.672Z,17.10
2022-11-09T14:08:40.447Z,17.09
2022-11-09T14:11:59.038Z,17.02
2022-11-09T14:15:22.322Z,16.95
2022-11-09T14:18:20.463Z,16.97
2022-11-09T14:21:16.440Z,16.94
2022-11-09T14:24:04.641Z,16.92
2022-11-09T14:27:02.755Z,16.75
2022-11-09T14:29:55.542Z,16.75
2022-11-09T14:32:49.583Z,16.73
2022-11-09T14:35:39.321Z,16.68
2022-11-09T14:38:29.388Z,16.62
2022-11-09T14:41:22.402Z,16.58
2022-11-09T14:44:16.974Z,16.45
2022-11-09T14:47:04.898Z,16.40
2022-11-09T14:49:53.675Z,16.34
2022-11-09T14:52:41.452Z,16.24
2022-11-09T14:55:29.711Z,16.17
2022-11-09T14:58:16.981Z,16.09
2022-11-09T15:01:09.657Z,15.95
2022-11-09T15:04:11.533Z,15.76
2022-11-09T15:07:02.457Z,15.79
2022-11-09T15:09:52.426Z,15.74
2022-11-09T15:12:43.870Z,15.63
2022-11-09T15:15:35.596Z,15.52
2022-11-09T15:18:33.598Z,15.43
2022-11-09T15:21:33.539Z,15.41
2022-11-09T15:24:23.012Z,15.31
2022-11-09T15:27:29.408Z,15.26
2022-11-09T15:30:28.866Z,15.25
2022-11-09T15:33:25.350Z,15.30
2022-11-09T15:36:24.964Z,15.32
2022-11-09T15:39:16.836Z,15.28
2022-11-09T15:42:05.124Z,15.13
2022-11-09T15:44:55.497Z,15.11
2022-11-09T15:47:42.528Z,14.97
2022-11-09T15:50:29.148Z,14.76
2022-11-09T15:53:16.048Z,14.72
2022-11-09T15:56:03.135Z,14.67
2022-11-09T15:58:52.503Z,14.61
2022-11-09T16:01:40.156Z,14.52
2022-11-09T16:04:26.686Z,14.36
2022-11-09T16:07:15.856Z,14.34
2022-11-09T16:10:02.900Z,14.32
2022-11-09T16:12:49.233Z,14.34
2022-11-09T16:15:38.813Z,14.36
2022-11-09T16:18:26.324Z,14.38
2022-11-09T16:21:15.614Z,14.32
2022-11-09T16:24:02.024Z,14.24
2022-11-09T16:26:49.089Z,14.19
2022-11-09T16:29:35.766Z,14.14
2022-11-09T16:32:23.566Z,14.08
2022-11-09T16:35:27.949Z,13.93
2022-11-09T16:38:16.007Z,13.90
2022-11-09T16:41:04.631Z,13.91
2022-11-09T16:43:53.753Z,13.80
2022-11-09T16:46:43.381Z,13.77
2022-11-09T16:49:32.622Z,13.62
2022-11-09T16:52:19.238Z,13.49
2022-11-09T16:55:08.626Z,13.49
2022-11-09T16:57:55.075Z,13.45
2022-11-09T17:01:04.336Z,13.54
2022-11-09T17:03:52.012Z,13.54
2022-11-09T17:06:40.464Z,13.56
2022-11-09T17:09:27.122Z,13.53
2022-11-09T17:12:13.268Z,13.44
2022-11-09T17:15:00.113Z,13.41
2022-11-09T17:17:46.469Z,13.39
2022-11-09T17:20:33.843Z,13.42
2022-11-09T17:23:21.691Z,13.31
2022-11-09T17:26:09.554Z,13.32
2022-11-09T17:28:55.770Z,13.30
2022-11-09T17:31:42.531Z,13.21
2022-11-09T17:34:28.827Z,13.21
2022-11-09T17:37:15.548Z,13.17
2022-11-09T17:40:03.082Z,13.06
2022-11-09T17:42:49.293Z,13.05
2022-11-09T17:45:36.343Z,13.11
2022-11-09T17:48:23.168Z,13.08
2022-11-09T17:51:10.707Z,13.09
2022-11-09T17:53:57.881Z,13.06
2022-11-09T17:56:45.784Z,13.08
2022-11-09T17:59:32.661Z,12.96
2022-11-09T18:02:19.332Z,12.98
2022-11-09T18:05:06.509Z,12.94
2022-11-09T18:07:52.744Z,12.92
2022-11-09T18:10:41.593Z,12.98
2022-11-09T18:13:29.640Z,12.98
2022-11-09T18:16:18.024Z,12.93
2022-11-09T18:19:05.931Z,12.82
2022-11-09T18:21:52.522Z,12.84
2022-11-09T18:24:38.613Z,12.78
2022-11-09T18:27:30.050Z,12.78
2022-11-09T18:30:18.623Z,12.77
2022-11-09T18:33:05.772Z,12.72
2022-11-09T18:35:57.629Z,12.73
2022-11-09T18:38:44.849Z,12.67
2022-11-09T18:41:31.969Z,12.55
2022-11-09T18:44:18.259Z,12.63
2022-11-09T18:47:08.551Z,12.68
2022-11-09T18:49:55.422Z,12.65
2022-11-09T18:52:42.467Z,12.63
2022-11-09T18:55:28.698Z,12.63
2022-11-09T18:58:16.229Z,12.62
2022-11-09T19:01:06.030Z,12.67
2022-11-09T19:03:59.311Z,12.50
2022-11-09T19:06:46.293Z,12.60
2022-11-09T19:09:38.384Z,12.52
2022-11-09T19:12:25.142Z,12.59
2022-11-09T19:15:11.944Z,12.60
2022-11-09T19:17:58.108Z,12.62
2022-11-09T19:20:47.544Z,12.63
2022-11-09T19:23:34.911Z,12.60
2022-11-09T19:26:22.060Z,12.53
2022-11-09T19:29:09.324Z,12.58
2022-11-09T19:31:55.785Z,12.49
2022-11-09T19:34:42.867Z,12.50
2022-11-09T19:37:30.748Z,12.54
2022-11-09T19:40:17.505Z,12.55
2022-11-09T19:43:03.983Z,12.55
2022-11-09T19:45:50.139Z,12.56
2022-11-09T19:48:36.754Z,12.62
2022-11-09T19:51:23.169Z,12.60
2022-11-09T19:54:12.894Z,12.62
2022-11-09T19:56:59.543Z,12.57
2022-11-09T19:59:46.162Z,12.57
2022-11-09T20:02:32.333Z,12.63
2022-11-09T20:05:18.746Z,12.67
2022-11-09T20:08:06.582Z,12.58
2022-11-09T20:10:54.690Z,12.58
2022-11-09T20:13:41.154Z,12.62
2022-11-09T20:16:27.712Z,12.60
2022-11-09T20:19:14.774Z,12.61
2022-11-09T20:22:01.375Z,12.64
2022-11-09T20:24:48.253Z,12.60
2022-11-09T20:27:36.537Z,12.58
2022-11-09T20:30:23.409Z,12.60
2022-11-09T20:33:10.792Z,12.59
2022-11-09T20:35:57.756Z,12.56
2022-11-09T20:38:44.027Z,12.57
2022-11-09T20:41:32.761Z,12.54
2022-11-09T20:44:20.455Z,12.56
2022-11-09T20:47:06.948Z,12.55
2022-11-09T20:49:53.187Z,12.48
2022-11-09T20:52:39.745Z,12.48
2022-11-09T20:55:25.953Z,12.34
2022-11-09T20:58:13.788Z,12.31
2022-11-09T21:01:03.467Z,12.49
2022-11-09T21:03:51.953Z,12.32
2022-11-09T21:06:38.894Z,12.43
2022-11-09T21:09:26.065Z,12.26
2022-11-09T21:12:27.317Z,12.40
2022-11-09T21:15:15.145Z,12.32
2022-11-09T21:18:02.777Z,12.40
2022-11-09T21:20:49.308Z,12.32
2022-11-09T21:23:55.039Z,12.29
2022-11-09T21:26:58.647Z,12.30
2022-11-09T21:29:53.874Z,12.19
2022-11-09T21:32:41.354Z,12.40
2022-11-09T21:35:29.342Z,12.21
2022-11-09T21:38:16.032Z,12.24
2022-11-09T21:41:24.154Z,12.27
2022-11-09T21:44:12.867Z,12.31
2022-11-09T21:46:59.869Z,12.20
2022-11-09T21:49:46.613Z,12.31
2022-11-09T21:52:34.193Z,12.27
2022-11-09T21:55:20.899Z,12.17
2022-11-09T21:58:07.690Z,12.10
2022-11-09T22:00:54.148Z,12.18
2022-11-09T22:03:42.205Z,12.02
2022-11-09T22:06:28.604Z,12.18
2022-11-09T22:09:18.686Z,12.07
2022-11-09T22:12:22.722Z,12.13
2022-11-09T22:15:28.132Z,12.10
2022-11-09T22:18:34.621Z,12.10
2022-11-09T22:21:20.665Z,12.12
2022-11-09T22:24:07.764Z,12.15
2022-11-09T22:26:55.465Z,12.12
2022-11-09T22:29:42.106Z,12.18
2022-11-09T22:32:28.613Z,12.22
2022-11-09T22:35:15.245Z,12.28
2022-11-09T22:38:02.861Z,12.34
2022-11-09T22:40:49.749Z,12.17
2022-11-09T22:43:39.677Z,12.11
2022-11-09T22:46:26.204Z,12.20
2022-11-09T22:49:12.413Z,12.28
2022-11-09T22:51:58.690Z,12.24
2022-11-09T22:54:45.846Z,12.26
2022-11-09T22:57:32.925Z,12.14
2022-11-09T23:00:22.296Z,12.26
2022-11-09T23:03:08.688Z,12.19
2022-11-09T23:06:02.374Z,12.18
2022-11-09T23:08:50.327Z,12.16
2022-11-09T23:11:36.581Z,12.12
2022-11-09T23:14:44.538Z,12.16
2022-11-09T23:17:50.087Z,12.17
2022-11-09T23:20:37.452Z,12.07
2022-11-09T23:23:23.965Z,12.11
2022-11-09T23:26:11.744Z,12.06
2022-11-09T23:28:58.637Z,12.05
2022-11-09T23:31:45.082Z,12.17
2022-11-09T23:34:33.657Z,12.13
2022-11-09T23:37:20.089Z,12.09
2022-11-09T23:40:08.915Z,12.16
2022-11-09T23:43:00.841Z,12.16
2022-11-09T23:45:48.061Z,12.10
2022-11-09T23:48:34.545Z,12.10
2022-11-09T23:51:23.293Z,12.06
2022-11-09T23:54:09.728Z,12.08
2022-11-09T23:56:55.915Z,12.08
2022-11-09T23:59:42.830Z,12.05
